createdAt,value
2019-05-05T00:01:11.703Z,4.59
2019-05-05T00:03:45.663Z,4.55
2019-05-05T00:06:17.224Z,4.50
2019-05-05T00:08:48.589Z,4.45
2019-05-05T00:11:24.515Z,4.45
2019-05-05T00:13:57.559Z,4.34
2019-05-05T00:16:44.506Z,4.33
2019-05-05T00:19:29.020Z,4.29
2019-05-05T00:21:49.130Z,4.24
2019-05-05T00:24:20.464Z,4.20
2019-05-05T00:26:51.826Z,4.18
2019-05-05T00:29:25.350Z,4.13
2019-05-05T00:31:56.937Z,4.11
2019-05-05T00:34:28.221Z,4.06
2019-05-05T00:36:59.446Z,4.04
2019-05-05T00:39:30.883Z,3.99
2019-05-05T00:42:02.165Z,3.98
2019-05-05T00:44:35.227Z,3.98
2019-05-05T00:47:10.255Z,3.99
2019-05-05T00:49:49.446Z,3.98
2019-05-05T00:52:21.030Z,3.98
2019-05-05T00:54:52.372Z,3.98
2019-05-05T00:57:24.277Z,3.99
2019-05-05T00:59:55.657Z,3.99
2019-05-05T01:02:45.001Z,3.98
2019-05-05T01:05:25.306Z,3.98
2019-05-05T01:07:57.001Z,4.00
2019-05-05T01:10:28.213Z,3.94
2019-05-05T01:12:59.488Z,3.91
2019-05-05T01:15:30.775Z,3.92
2019-05-05T01:18:02.342Z,3.91
2019-05-05T01:20:34.448Z,3.96
2019-05-05T01:23:06.771Z,3.91
2019-05-05T01:25:38.188Z,3.91
2019-05-05T01:28:09.925Z,3.87
2019-05-05T01:30:44.517Z,3.82
2019-05-05T01:33:34.400Z,3.83
2019-05-05T01:36:06.419Z,3.87
2019-05-05T01:38:45.184Z,3.79
2019-05-05T01:41:30.482Z,3.81
2019-05-05T01:44:01.816Z,3.84
2019-05-05T01:46:35.148Z,3.83
2019-05-05T01:49:06.288Z,3.84
2019-05-05T01:51:37.517Z,3.86
2019-05-05T01:54:08.831Z,3.85
2019-05-05T01:56:40.263Z,3.88
2019-05-05T01:59:11.850Z,3.84
2019-05-05T02:01:44.580Z,3.84
2019-05-05T02:04:16.157Z,3.83
2019-05-05T02:06:47.496Z,3.85
2019-05-05T02:09:18.990Z,3.82
2019-05-05T02:11:50.349Z,3.76
2019-05-05T02:14:21.675Z,3.70
2019-05-05T02:16:54.858Z,3.72
2019-05-05T02:19:26.201Z,3.68
2019-05-05T02:21:57.560Z,3.66
2019-05-05T02:24:28.811Z,3.68
2019-05-05T02:27:00.851Z,3.70
2019-05-05T02:29:44.674Z,3.70
2019-05-05T02:32:36.190Z,3.65
2019-05-05T02:35:10.408Z,3.56
2019-05-05T02:37:45.466Z,3.55
2019-05-05T02:40:16.327Z,3.48
2019-05-05T02:42:48.864Z,3.47
2019-05-05T02:45:30.722Z,3.44
2019-05-05T02:48:05.515Z,3.43
2019-05-05T02:50:57.517Z,3.41
2019-05-05T02:53:28.451Z,3.36
2019-05-05T02:56:04.311Z,3.31
2019-05-05T02:58:38.933Z,3.28
2019-05-05T03:01:24.978Z,3.27
2019-05-05T03:03:57.638Z,3.24
2019-05-05T03:06:29.551Z,3.25
2019-05-05T03:09:01.410Z,3.24
2019-05-05T03:11:35.929Z,3.25
2019-05-05T03:14:09.538Z,3.21
2019-05-05T03:16:43.486Z,3.21
2019-05-05T03:19:14.659Z,3.19
2019-05-05T03:21:46.394Z,3.18
2019-05-05T03:24:18.979Z,3.18
2019-05-05T03:26:50.537Z,3.17
2019-05-05T03:29:24.357Z,3.17
2019-05-05T03:31:56.555Z,3.17
2019-05-05T03:34:28.395Z,3.17
2019-05-05T03:36:59.980Z,3.19
2019-05-05T03:39:34.030Z,3.25
2019-05-05T03:42:16.865Z,3.23
2019-05-05T03:44:56.494Z,3.17
2019-05-05T03:47:29.461Z,3.21
2019-05-05T03:50:01.618Z,3.23
2019-05-05T03:52:34.598Z,3.18
2019-05-05T03:55:09.147Z,3.16
2019-05-05T03:57:40.787Z,3.15
2019-05-05T04:00:14.288Z,3.17
2019-05-05T04:02:53.863Z,3.17
2019-05-05T04:05:34.006Z,3.17
2019-05-05T04:08:05.603Z,3.15
2019-05-05T04:10:37.003Z,3.17
2019-05-05T04:13:09.265Z,3.18
2019-05-05T04:15:44.095Z,3.17
2019-05-05T04:18:25.422Z,3.24
2019-05-05T04:20:56.736Z,3.27
2019-05-05T04:23:28.038Z,3.32
2019-05-05T04:25:59.375Z,3.38
2019-05-05T04:28:31.371Z,3.42
2019-05-05T04:31:04.202Z,3.36
2019-05-05T04:33:35.510Z,3.36
2019-05-05T04:36:06.861Z,3.32
2019-05-05T04:38:38.192Z,3.31
2019-05-05T04:41:09.421Z,3.35
2019-05-05T04:43:40.660Z,3.41
2019-05-05T04:46:14.015Z,3.45
2019-05-05T04:49:03.572Z,3.47
2019-05-05T04:51:46.652Z,3.52
2019-05-05T04:54:20.203Z,3.56
2019-05-05T04:56:53.846Z,3.60
2019-05-05T04:59:24.681Z,3.64
2019-05-05T05:01:58.499Z,3.67
2019-05-05T05:04:33.542Z,3.71
2019-05-05T05:07:04.835Z,3.75
2019-05-05T05:09:46.522Z,3.79
2019-05-05T05:12:23.732Z,3.82
2019-05-05T05:14:55.100Z,3.86
2019-05-05T05:17:31.187Z,3.90
2019-05-05T05:20:03.753Z,3.93
2019-05-05T05:22:35.729Z,4.01
2019-05-05T05:25:08.553Z,4.06
2019-05-05T05:27:39.923Z,4.11
2019-05-05T05:30:13.760Z,4.18
2019-05-05T05:32:45.301Z,4.24
2019-05-05T05:35:16.842Z,4.27
2019-05-05T05:37:48.336Z,4.38
2019-05-05T05:40:24.378Z,4.46
2019-05-05T05:42:57.133Z,4.51
2019-05-05T05:45:36.478Z,4.62
2019-05-05T05:48:15.304Z,4.69
2019-05-05T05:50:54.118Z,4.72
2019-05-05T05:53:25.525Z,4.79
2019-05-05T05:55:57.491Z,4.89
2019-05-05T05:58:29.061Z,4.94
2019-05-05T06:01:04.137Z,5.00
2019-05-05T06:03:34.249Z,5.10
2019-05-05T06:06:05.761Z,5.25
2019-05-05T06:08:37.614Z,5.30
2019-05-05T06:11:09.105Z,5.37
2019-05-05T06:13:44.089Z,5.42
2019-05-05T06:16:15.366Z,5.53
2019-05-05T06:18:46.823Z,5.55
2019-05-05T06:21:18.574Z,5.62
2019-05-05T06:23:50.248Z,5.68
2019-05-05T06:26:23.888Z,5.79
2019-05-05T06:28:54.784Z,5.90
2019-05-05T06:31:33.983Z,5.99
2019-05-05T06:34:05.524Z,6.03
2019-05-05T06:36:39.827Z,6.09
2019-05-05T06:39:13.649Z,6.14
2019-05-05T06:41:46.809Z,6.07
2019-05-05T06:44:38.180Z,6.19
2019-05-05T06:47:13.367Z,6.30
2019-05-05T06:49:44.572Z,6.36
2019-05-05T06:52:16.132Z,6.50
2019-05-05T06:54:48.022Z,6.62
2019-05-05T06:57:21.388Z,6.67
2019-05-05T06:59:54.393Z,6.73
2019-05-05T07:02:26.091Z,6.63
2019-05-05T07:04:59.079Z,6.79
2019-05-05T07:07:30.349Z,6.95
2019-05-05T07:10:03.633Z,6.91
2019-05-05T07:12:37.302Z,6.98
2019-05-05T07:15:10.275Z,7.23
2019-05-05T07:17:44.587Z,7.27
2019-05-05T07:20:16.458Z,7.18
2019-05-05T07:22:58.738Z,7.34
2019-05-05T07:25:24.212Z,7.39
2019-05-05T07:27:55.810Z,7.22
2019-05-05T07:30:29.036Z,7.31
2019-05-05T07:33:00.546Z,7.23
2019-05-05T07:35:35.151Z,7.48
2019-05-05T07:38:06.680Z,7.76
2019-05-05T07:40:38.647Z,7.52
2019-05-05T07:43:10.352Z,7.69
2019-05-05T07:45:44.440Z,7.84
2019-05-05T07:48:17.938Z,8.02
2019-05-05T07:50:59.794Z,8.10
2019-05-05T07:53:24.521Z,8.28
2019-05-05T07:55:55.979Z,8.25
2019-05-05T07:58:27.339Z,8.51
2019-05-05T08:00:58.836Z,8.72
2019-05-05T08:03:30.322Z,8.65
2019-05-05T08:06:03.912Z,8.74
2019-05-05T08:08:35.050Z,8.57
2019-05-05T08:11:06.384Z,8.47
2019-05-05T08:13:37.751Z,8.21
2019-05-05T08:16:27.252Z,8.03
2019-05-05T08:19:06.057Z,7.64
2019-05-05T08:21:37.744Z,7.79
2019-05-05T08:24:11.050Z,8.44
2019-05-05T08:26:44.284Z,8.54
2019-05-05T08:29:35.365Z,8.16
2019-05-05T08:32:08.340Z,8.18
2019-05-05T08:34:54.361Z,8.42
2019-05-05T08:37:14.636Z,8.59
2019-05-05T08:39:46.309Z,8.87
2019-05-05T08:42:17.952Z,9.05
2019-05-05T08:44:49.337Z,8.82
2019-05-05T08:47:21.103Z,9.22
2019-05-05T08:49:53.747Z,9.63
2019-05-05T08:52:26.729Z,9.69
2019-05-05T08:55:00.773Z,9.70
2019-05-05T08:57:34.175Z,9.90
2019-05-05T09:00:09.267Z,9.74
2019-05-05T09:02:40.786Z,9.61
2019-05-05T09:05:14.467Z,9.33
2019-05-05T09:07:46.355Z,9.40
2019-05-05T09:10:17.983Z,9.71
2019-05-05T09:12:49.664Z,9.81
2019-05-05T09:15:21.725Z,9.72
2019-05-05T09:17:54.516Z,9.78
2019-05-05T09:20:26.309Z,10.26
2019-05-05T09:22:57.878Z,10.88
2019-05-05T09:25:34.180Z,10.49
2019-05-05T09:28:23.888Z,10.36
2019-05-05T09:30:56.047Z,10.13
2019-05-05T09:33:27.471Z,10.03
2019-05-05T09:35:59.736Z,10.05
2019-05-05T09:38:31.586Z,9.84
2019-05-05T09:41:03.808Z,10.06
2019-05-05T10:12:44.569Z,9.08
2019-05-05T10:15:16.142Z,9.03
2019-05-05T10:17:47.411Z,9.18
2019-05-05T10:20:19.131Z,9.30
2019-05-05T10:22:50.475Z,9.30
2019-05-05T10:25:27.535Z,9.39
2019-05-05T10:28:00.487Z,9.50
2019-05-05T10:30:31.956Z,10.17
2019-05-05T10:33:03.879Z,10.52
2019-05-05T10:35:37.710Z,10.58
2019-05-05T10:38:09.199Z,10.85
2019-05-05T10:40:40.630Z,10.68
2019-05-05T10:43:12.311Z,11.10
2019-05-05T10:45:44.218Z,11.52
2019-05-05T10:48:15.882Z,11.58
2019-05-05T10:50:47.566Z,11.67
2019-05-05T10:53:19.441Z,11.69
2019-05-05T10:55:51.422Z,11.91
2019-05-05T10:58:24.387Z,12.08
2019-05-05T11:00:57.982Z,11.93
2019-05-05T11:03:29.540Z,11.63
2019-05-05T11:06:01.407Z,11.61
2019-05-05T11:08:34.772Z,11.32
2019-05-05T11:11:06.742Z,11.38
2019-05-05T11:13:38.462Z,11.06
2019-05-05T11:16:10.210Z,10.58
2019-05-05T11:18:41.832Z,10.56
2019-05-05T11:21:14.446Z,10.87
2019-05-05T11:23:45.971Z,11.68
2019-05-05T11:26:17.619Z,11.89
2019-05-05T11:28:48.975Z,12.26
2019-05-05T11:31:20.410Z,12.39
2019-05-05T11:33:54.171Z,12.27
2019-05-05T11:36:27.722Z,12.58
2019-05-05T11:38:59.281Z,12.96
2019-05-05T11:41:30.821Z,12.32
2019-05-05T11:44:04.072Z,11.94
2019-05-05T11:46:35.522Z,11.53
2019-05-05T11:49:07.054Z,11.45
2019-05-05T11:51:38.547Z,12.05
2019-05-05T11:54:09.988Z,12.88
2019-05-05T11:56:41.867Z,12.06
2019-05-05T11:59:14.417Z,11.88
2019-05-05T12:01:46.032Z,11.46
2019-05-05T12:04:17.853Z,11.20
2019-05-05T12:06:49.286Z,11.09
2019-05-05T12:09:24.585Z,11.12
2019-05-05T12:11:55.933Z,10.98
2019-05-05T12:14:28.978Z,10.79
2019-05-05T12:17:04.565Z,10.71
2019-05-05T12:19:36.364Z,10.67
2019-05-05T12:22:07.740Z,10.65
2019-05-05T12:24:40.760Z,10.53
2019-05-05T12:27:34.078Z,10.69
2019-05-05T12:30:05.176Z,10.82
2019-05-05T12:32:36.708Z,10.89
2019-05-05T12:35:08.187Z,10.97
2019-05-05T12:37:39.728Z,11.68
2019-05-05T12:40:14.305Z,12.52
2019-05-05T12:42:45.879Z,13.25
2019-05-05T12:45:19.119Z,13.19
2019-05-05T12:48:08.522Z,12.09
2019-05-05T12:50:40.287Z,11.41
2019-05-05T12:53:11.853Z,11.26
2019-05-05T12:55:44.586Z,11.78
2019-05-05T12:58:16.417Z,12.71
2019-05-05T13:01:04.800Z,12.95
2019-05-05T13:03:36.516Z,12.81
2019-05-05T13:06:08.179Z,12.28
2019-05-05T13:08:40.785Z,11.98
2019-05-05T13:11:12.233Z,11.61
2019-05-05T13:13:44.073Z,11.38
2019-05-05T13:16:16.613Z,11.22
2019-05-05T13:18:48.490Z,10.99
2019-05-05T13:21:21.626Z,10.92
2019-05-05T13:24:01.709Z,10.75
2019-05-05T13:26:54.117Z,10.60
2019-05-05T13:29:25.702Z,10.48
2019-05-05T13:31:57.186Z,10.55
2019-05-05T13:34:28.618Z,10.62
2019-05-05T13:37:00.139Z,10.69
2019-05-05T13:39:33.914Z,10.81
2019-05-05T13:42:06.200Z,10.78
2019-05-05T13:44:49.349Z,10.86
2019-05-05T13:50:11.667Z,10.90
2019-05-05T13:52:44.208Z,10.69
2019-05-05T13:55:16.086Z,10.76
2019-05-05T13:57:47.462Z,10.47
2019-05-05T14:00:19.881Z,10.58
2019-05-05T14:02:51.505Z,10.57
2019-05-05T14:05:24.041Z,10.66
2019-05-05T14:07:55.520Z,10.88
2019-05-05T14:10:26.964Z,11.04
2019-05-05T14:12:58.506Z,11.15
2019-05-05T14:15:29.981Z,11.38
2019-05-05T14:18:03.664Z,11.43
2019-05-05T14:20:34.656Z,11.35
2019-05-05T14:23:06.383Z,11.31
2019-05-05T14:25:37.873Z,11.19
2019-05-05T14:28:14.178Z,11.11
2019-05-05T14:30:54.271Z,11.01
2019-05-05T14:33:27.596Z,11.07
2019-05-05T14:36:19.102Z,10.95
2019-05-05T14:38:53.925Z,10.93
2019-05-05T14:41:25.348Z,11.00
2019-05-05T14:43:56.801Z,10.85
2019-05-05T14:46:28.284Z,10.80
2019-05-05T14:48:59.710Z,10.81
2019-05-05T14:51:34.026Z,10.87
2019-05-05T14:54:05.377Z,11.10
2019-05-05T14:56:37.802Z,11.27
2019-05-05T14:59:09.188Z,11.25
2019-05-05T15:01:40.508Z,11.40
2019-05-05T15:04:13.490Z,11.57
2019-05-05T15:06:46.507Z,11.47
2019-05-05T15:09:29.104Z,11.71
2019-05-05T15:12:04.707Z,11.57
2019-05-05T15:14:36.181Z,11.54
2019-05-05T15:17:07.702Z,11.58
2019-05-05T15:19:40.237Z,11.46
2019-05-05T15:22:15.069Z,11.35
2019-05-05T15:24:46.086Z,11.33
2019-05-05T15:27:17.729Z,11.25
2019-05-05T15:29:49.407Z,11.33
2019-05-05T15:32:20.855Z,11.36
2019-05-05T15:34:54.366Z,11.32
2019-05-05T15:37:25.387Z,11.32
2019-05-05T15:40:00.099Z,11.45
2019-05-05T15:42:34.627Z,12.01
2019-05-05T15:45:06.921Z,12.69
2019-05-05T15:47:38.346Z,12.94
2019-05-05T15:50:10.616Z,12.95
2019-05-05T15:52:44.016Z,12.65
2019-05-05T15:55:15.730Z,12.97
2019-05-05T15:57:47.302Z,12.76
2019-05-05T16:00:19.545Z,12.86
2019-05-05T16:02:51.096Z,12.49
2019-05-05T16:05:24.309Z,12.48
2019-05-05T16:07:55.950Z,12.10
2019-05-05T16:10:28.576Z,11.84
2019-05-05T16:13:00.049Z,11.93
2019-05-05T16:15:31.215Z,11.76
2019-05-05T16:18:10.341Z,11.94
2019-05-05T16:20:44.490Z,11.92
2019-05-05T16:23:20.977Z,11.92
2019-05-05T16:25:54.206Z,11.75
2019-05-05T16:28:25.885Z,11.58
2019-05-05T16:30:57.297Z,11.68
2019-05-05T16:33:28.590Z,11.74
2019-05-05T16:35:59.961Z,11.65
2019-05-05T16:38:34.281Z,11.60
2019-05-05T16:41:07.324Z,11.61
2019-05-05T16:43:38.731Z,11.69
2019-05-05T16:46:10.076Z,11.67
2019-05-05T16:48:43.786Z,11.46
2019-05-05T16:51:16.271Z,11.32
2019-05-05T16:53:47.930Z,11.10
2019-05-05T16:56:31.118Z,11.11
2019-05-05T16:59:02.453Z,11.07
2019-05-05T17:01:35.751Z,11.07
2019-05-05T17:04:15.006Z,11.08
2019-05-05T17:06:49.662Z,11.06
2019-05-05T17:09:24.129Z,10.98
2019-05-05T17:12:11.211Z,11.03
2019-05-05T17:15:11.085Z,11.03
2019-05-05T17:17:54.541Z,11.07
2019-05-05T17:20:44.692Z,11.18
2019-05-05T17:23:17.973Z,11.35
2019-05-05T17:25:50.903Z,11.69
2019-05-05T17:28:23.857Z,11.82
2019-05-05T17:30:55.418Z,11.75
2019-05-05T17:33:34.050Z,11.45
2019-05-05T17:36:06.860Z,11.23
2019-05-05T17:38:43.597Z,11.09
2019-05-05T17:41:20.305Z,11.05
2019-05-05T17:44:03.597Z,11.03
2019-05-05T17:46:40.947Z,10.92
2019-05-05T17:49:26.912Z,11.01
2019-05-05T17:52:16.578Z,11.17
2019-05-05T17:54:51.191Z,11.36
2019-05-05T17:57:23.643Z,11.25
2019-05-05T17:59:55.113Z,11.35
2019-05-05T18:02:26.576Z,11.32
2019-05-05T18:04:58.108Z,11.18
2019-05-05T18:07:34.592Z,11.28
2019-05-05T18:10:08.142Z,11.25
2019-05-05T18:12:55.115Z,11.18
2019-05-05T18:15:44.009Z,11.09
2019-05-05T18:18:16.072Z,10.86
2019-05-05T18:20:49.920Z,10.76
2019-05-05T18:23:23.457Z,10.79
2019-05-05T18:25:55.859Z,10.78
2019-05-05T18:28:44.778Z,10.75
2019-05-05T18:31:17.426Z,10.70
2019-05-05T18:33:49.410Z,10.60
2019-05-05T18:36:22.861Z,10.56
2019-05-05T18:39:01.899Z,10.49
2019-05-05T18:41:41.137Z,10.43
2019-05-05T18:44:16.378Z,10.33
2019-05-05T18:46:50.133Z,10.13
2019-05-05T18:49:23.243Z,9.99
2019-05-05T18:51:54.356Z,10.04
2019-05-05T18:54:25.704Z,9.93
2019-05-05T18:56:56.956Z,9.90
2019-05-05T18:59:28.229Z,9.89
2019-05-05T19:02:01.310Z,9.74
2019-05-05T19:04:36.943Z,9.61
2019-05-05T19:07:14.452Z,9.63
2019-05-05T19:13:54.107Z,9.61
2019-05-05T19:16:25.632Z,9.43
2019-05-05T19:18:56.952Z,9.42
2019-05-05T19:21:29.940Z,9.40
2019-05-05T19:24:01.274Z,9.32
2019-05-05T19:26:33.736Z,9.21
2019-05-05T19:29:05.293Z,9.09
2019-05-05T19:31:37.562Z,8.98
2019-05-05T19:34:08.939Z,8.94
2019-05-05T19:36:40.188Z,8.94
2019-05-05T19:39:13.694Z,8.91
2019-05-05T19:41:47.087Z,8.77
2019-05-05T19:44:18.578Z,8.74
2019-05-05T19:46:51.573Z,8.73
2019-05-05T19:49:24.164Z,8.80
2019-05-05T19:51:55.867Z,8.84
2019-05-05T19:54:27.283Z,8.72
2019-05-05T19:56:58.656Z,8.71
2019-05-05T19:59:29.976Z,8.65
2019-05-05T20:02:03.572Z,8.62
2019-05-05T20:04:35.212Z,8.56
2019-05-05T20:07:06.589Z,8.51
2019-05-05T20:09:37.952Z,8.49
2019-05-05T20:12:09.329Z,8.53
2019-05-05T20:14:40.650Z,8.53
2019-05-05T20:17:19.602Z,8.50
2019-05-05T20:19:50.861Z,8.47
2019-05-05T20:22:25.639Z,8.46
2019-05-05T20:24:56.975Z,8.43
2019-05-05T20:27:28.492Z,8.43
2019-05-05T20:29:59.841Z,8.43
2019-05-05T20:32:34.145Z,8.45
2019-05-05T20:35:08.150Z,8.46
2019-05-05T20:37:47.143Z,8.43
2019-05-05T20:40:20.335Z,8.41
2019-05-05T20:42:54.111Z,8.45
2019-05-05T20:45:26.363Z,8.33
2019-05-05T20:47:57.686Z,8.26
2019-05-05T20:50:29.265Z,8.23
2019-05-05T20:53:00.919Z,8.13
2019-05-05T20:55:33.898Z,8.02
2019-05-05T20:58:05.521Z,8.05
2019-05-05T21:00:36.891Z,7.94
2019-05-05T21:03:08.190Z,7.94
2019-05-05T21:05:39.559Z,7.91
2019-05-05T21:08:10.954Z,7.84
2019-05-05T21:10:44.163Z,7.79
2019-05-05T21:13:15.266Z,7.81
2019-05-05T21:15:46.568Z,7.85
2019-05-05T21:18:17.939Z,7.82
2019-05-05T21:20:49.238Z,7.82
2019-05-05T21:23:31.225Z,7.80
2019-05-05T21:26:20.052Z,7.84
2019-05-05T21:28:53.679Z,7.79
2019-05-05T21:31:24.585Z,7.81
2019-05-05T21:33:55.885Z,7.83
2019-05-05T21:36:27.494Z,7.80
2019-05-05T21:38:58.748Z,7.81
2019-05-05T21:41:30.034Z,7.80
2019-05-05T21:44:03.635Z,7.77
2019-05-05T21:46:34.753Z,7.73
2019-05-05T21:49:06.581Z,7.70
2019-05-05T21:51:46.281Z,7.71
2019-05-05T21:54:35.338Z,7.66
2019-05-05T21:57:06.477Z,7.65
2019-05-05T21:59:37.862Z,7.64
2019-05-05T22:02:09.667Z,7.67
2019-05-05T22:04:41.057Z,7.63
2019-05-05T22:07:14.469Z,7.53
2019-05-05T22:09:45.367Z,7.47
2019-05-05T22:12:16.668Z,7.45
2019-05-05T22:14:48.032Z,7.45
2019-05-05T22:17:19.333Z,7.43
2019-05-05T22:19:55.086Z,7.41
2019-05-05T22:22:29.101Z,7.38
2019-05-05T22:25:00.356Z,7.32
2019-05-05T22:27:31.631Z,7.26
2019-05-05T22:30:10.081Z,7.26
2019-05-05T22:32:37.261Z,7.28
2019-05-05T22:35:09.137Z,7.19
2019-05-05T22:37:40.577Z,7.14
2019-05-05T22:40:24.429Z,7.20
2019-05-05T22:42:56.083Z,7.25
2019-05-05T22:45:27.590Z,7.17
2019-05-05T22:47:58.837Z,7.12
2019-05-05T22:50:30.335Z,7.11
2019-05-05T22:53:01.750Z,7.09
2019-05-05T22:55:34.517Z,7.09
2019-05-05T22:58:05.999Z,7.08
2019-05-05T23:00:37.405Z,7.04
2019-05-05T23:03:24.509Z,6.98
2019-05-05T23:05:57.700Z,6.96
2019-05-05T23:08:29.043Z,6.94
2019-05-05T23:11:00.288Z,6.96
2019-05-05T23:13:33.616Z,6.93
2019-05-05T23:16:08.868Z,6.91
2019-05-05T23:18:40.449Z,6.92
2019-05-05T23:21:15.950Z,6.90
2019-05-05T23:24:00.599Z,6.95
2019-05-05T23:26:39.235Z,6.96
2019-05-05T23:29:10.603Z,6.95
2019-05-05T23:31:41.929Z,6.92
2019-05-05T23:34:14.745Z,6.95
2019-05-05T23:36:46.242Z,6.95
2019-05-05T23:39:17.582Z,6.93
2019-05-05T23:41:48.999Z,6.96
2019-05-05T23:44:20.360Z,6.93
2019-05-05T23:46:53.578Z,6.92
2019-05-05T23:49:24.587Z,6.91
2019-05-05T23:51:56.206Z,6.92
2019-05-05T23:54:27.864Z,6.92
2019-05-05T23:56:59.175Z,6.98
2019-05-05T23:59:30.554Z,6.98
